PWSweather.com
Personal Weather Stations
Station Observations
ISTOCKPO4
Cheadle HulmeGB SK8 6NZ

Cheadle HulmeGB SK8 6NZ

Lat: 53.363783, Lon: -2.1948438

Elevation: 261

Station Type: Davis VP2 with Daytime FARS

http://www.cheadlehulmeweather.co.uk

Latest ConditionsUpdated 11:15:03 PM GMT Tuesday, Mar 26, 2019
Currently Today's Max Today's Min Today's Average
Temperature 46.8°F8.2°C 53.4°F11.9°C 37.0°F2.8°C 45.9°F7.7°C
Dew Point 40.6°F4.8°C 44.4°F6.9°C 34.4°F1.3°C 39.8°F4.3°C
Winds Calm Calm 12.0 mph -19.3 kmh - - 4.5 mph 7.2 kmh
Wind Gusts -- 22.0 mph35.4 kmh - -
Humidity 79% 93% 64% 80%
Pressure 30.54 in1034.2 mb 30.57 in1035.2 mb 30.50 in1032.8 mb -
Hour Temp Dew Point Humidity Winds Wind Gusts Pressure Precip Precip Rate Daily Precip Total
11:15 PM 46.8°F8.2°C 40.6°F4.8°C 79% Calm Calm -- 30.54 in1034.2 mb 0.00 in0.0 mm 0.00 in0.0 mm 0.00 in0.0 mm
11:00 PM 46.8°F8.2°C 40.6°F4.8°C 79% Calm Calm -- 30.54 in1034.2 mb 0.00 in0.0 mm 0.00 in0.0 mm 0.00 in0.0 mm
10:45 PM 46.8°F8.2°C 40.6°F4.8°C 79% Calm Calm -- 30.54 in1034.2 mb 0.00 in0.0 mm 0.00 in0.0 mm 0.00 in0.0 mm
10:30 PM 46.9°F8.3°C 40.4°F4.7°C 78% Calm Calm 1.0 mph1.6 kmh 30.54 in1034.2 mb 0.00 in0.0 mm 0.00 in0.0 mm 0.00 in0.0 mm
10:15 PM 47.1°F8.4°C 40.6°F4.8°C 78% Calm Calm 2.0 mph3.2 kmh 30.54 in1034.2 mb 0.00 in0.0 mm 0.00 in0.0 mm 0.00 in0.0 mm
10:00 PM 47.1°F8.4°C 40.3°F4.6°C 77% 1.0 mph WNW1.6 kmh WNW 4.0 mph6.4 kmh 30.54 in1034.2 mb 0.00 in0.0 mm 0.00 in0.0 mm 0.00 in0.0 mm
09:45 PM 47.1°F8.4°C 40.3°F4.6°C 77% 2.0 mph WNW3.2 kmh WNW 4.0 mph6.4 kmh 30.54 in1034.2 mb 0.00 in0.0 mm 0.00 in0.0 mm 0.00 in0.0 mm
09:30 PM 47.3°F8.5°C 40.5°F4.7°C 77% 2.0 mph NW3.2 kmh NW 4.0 mph6.4 kmh 30.54 in1034.2 mb 0.00 in0.0 mm 0.00 in0.0 mm 0.00 in0.0 mm
09:15 PM 47.5°F8.6°C 40.3°F4.6°C 76% 3.0 mph NW4.8 kmh NW 8.0 mph12.9 kmh 30.54 in1034.2 mb 0.00 in0.0 mm 0.00 in0.0 mm 0.00 in0.0 mm
09:00 PM 47.5°F8.6°C 40.3°F4.6°C 76% 3.0 mph WNW4.8 kmh WNW 5.0 mph8.0 kmh 30.54 in1034.2 mb 0.00 in0.0 mm 0.00 in0.0 mm 0.00 in0.0 mm
08:45 PM 47.5°F8.6°C 39.9°F4.4°C 75% 5.0 mph NW8.0 kmh NW 9.0 mph14.5 kmh 30.54 in1034.2 mb 0.00 in0.0 mm 0.00 in0.0 mm 0.00 in0.0 mm
08:30 PM 47.5°F8.6°C 39.9°F4.4°C 75% 3.0 mph WNW4.8 kmh WNW 7.0 mph11.3 kmh 30.54 in1034.2 mb 0.00 in0.0 mm 0.00 in0.0 mm 0.00 in0.0 mm
08:15 PM 47.5°F8.6°C 39.6°F4.2°C 74% 3.0 mph NW4.8 kmh NW 5.0 mph8.0 kmh 30.54 in1034.2 mb 0.00 in0.0 mm 0.00 in0.0 mm 0.00 in0.0 mm
08:00 PM 47.7°F8.7°C 39.8°F4.3°C 74% 3.0 mph WNW4.8 kmh WNW 8.0 mph12.9 kmh 30.53 in1033.9 mb 0.00 in0.0 mm 0.00 in0.0 mm 0.00 in0.0 mm
07:45 PM 47.5°F8.6°C 39.3°F4.1°C 73% 5.0 mph NW8.0 kmh NW 9.0 mph14.5 kmh 30.53 in1033.9 mb 0.00 in0.0 mm 0.00 in0.0 mm 0.00 in0.0 mm
07:30 PM 47.7°F8.7°C 39.4°F4.1°C 73% 4.0 mph WNW6.4 kmh WNW 6.0 mph9.7 kmh 30.52 in1033.5 mb 0.00 in0.0 mm 0.00 in0.0 mm 0.00 in0.0 mm
07:15 PM 47.7°F8.7°C 39.1°F3.9°C 72% 5.0 mph WNW8.0 kmh WNW 9.0 mph14.5 kmh 30.52 in1033.5 mb 0.00 in0.0 mm 0.00 in0.0 mm 0.00 in0.0 mm
07:00 PM 47.7°F8.7°C 39.4°F4.1°C 73% 5.0 mph WNW8.0 kmh WNW 12.0 mph19.3 kmh 30.52 in1033.5 mb 0.00 in0.0 mm 0.00 in0.0 mm 0.00 in0.0 mm
06:45 PM 47.7°F8.7°C 39.4°F4.1°C 73% 7.0 mph WNW11.3 kmh WNW 14.0 mph22.5 kmh 30.51 in1033.2 mb 0.00 in0.0 mm 0.00 in0.0 mm 0.00 in0.0 mm
06:30 PM 47.8°F8.8°C 40.0°F4.4°C 74% 7.0 mph WNW11.3 kmh WNW 14.0 mph22.5 kmh 30.51 in1033.2 mb 0.00 in0.0 mm 0.00 in0.0 mm 0.00 in0.0 mm
06:15 PM 48.0°F8.9°C 40.1°F4.5°C 74% 7.0 mph WNW11.3 kmh WNW 14.0 mph22.5 kmh 30.50 in1032.8 mb 0.00 in0.0 mm 0.00 in0.0 mm 0.00 in0.0 mm
06:00 PM 48.6°F9.2°C 39.9°F4.4°C 72% 8.0 mph WNW12.9 kmh WNW 14.0 mph22.5 kmh 30.50 in1032.8 mb 0.00 in0.0 mm 0.00 in0.0 mm 0.00 in0.0 mm
05:45 PM 48.7°F9.3°C 38.6°F3.7°C 68% 8.0 mph NW12.9 kmh NW 14.0 mph22.5 kmh 30.50 in1032.8 mb 0.00 in0.0 mm 0.00 in0.0 mm 0.00 in0.0 mm
05:30 PM 48.7°F9.3°C 38.3°F3.5°C 67% 9.0 mph NW14.5 kmh NW 16.0 mph25.7 kmh 30.50 in1032.8 mb 0.00 in0.0 mm 0.00 in0.0 mm 0.00 in0.0 mm
05:15 PM 48.9°F9.4°C 38.4°F3.6°C 67% 10.0 mph NW16.1 kmh NW 18.0 mph29.0 kmh 30.50 in1032.8 mb 0.00 in0.0 mm 0.00 in0.0 mm 0.00 in0.0 mm
05:00 PM 49.3°F9.6°C 38.8°F3.8°C 67% 10.0 mph NW16.1 kmh NW 17.0 mph27.4 kmh 30.50 in1032.8 mb 0.00 in0.0 mm 0.00 in0.0 mm 0.00 in0.0 mm
04:45 PM 49.5°F9.7°C 38.6°F3.7°C 66% 10.0 mph NW16.1 kmh NW 18.0 mph29.0 kmh 30.50 in1032.8 mb 0.00 in0.0 mm 0.00 in0.0 mm 0.00 in0.0 mm
04:30 PM 50.5°F10.3°C 38.8°F3.8°C 64% 11.0 mph NW17.7 kmh NW 21.0 mph33.8 kmh 30.50 in1032.8 mb 0.00 in0.0 mm 0.00 in0.0 mm 0.00 in0.0 mm
04:15 PM 51.1°F10.6°C 40.1°F4.5°C 66% 8.0 mph NW12.9 kmh NW 19.0 mph30.6 kmh 30.50 in1032.8 mb 0.00 in0.0 mm 0.00 in0.0 mm 0.00 in0.0 mm
04:00 PM 51.3°F10.7°C 41.1°F5.1°C 68% 9.0 mph WNW14.5 kmh WNW 17.0 mph27.4 kmh 30.50 in1032.8 mb 0.00 in0.0 mm 0.00 in0.0 mm 0.00 in0.0 mm
03:45 PM 50.4°F10.2°C 40.9°F4.9°C 70% 12.0 mph WNW19.3 kmh WNW 19.0 mph30.6 kmh 30.50 in1032.8 mb 0.00 in0.0 mm 0.00 in0.0 mm 0.00 in0.0 mm
03:30 PM 50.2°F10.1°C 41.5°F5.3°C 72% 11.0 mph WNW17.7 kmh WNW 16.0 mph25.7 kmh 30.50 in1032.8 mb 0.00 in0.0 mm 0.00 in0.0 mm 0.00 in0.0 mm
03:15 PM 50.5°F10.3°C 41.5°F5.3°C 71% 9.0 mph W14.5 kmh W 16.0 mph25.7 kmh 30.51 in1033.2 mb 0.00 in0.0 mm 0.00 in0.0 mm 0.00 in0.0 mm
03:00 PM 50.7°F10.4°C 41.3°F5.2°C 70% 9.0 mph WNW14.5 kmh WNW 17.0 mph27.4 kmh 30.50 in1032.8 mb 0.00 in0.0 mm 0.00 in0.0 mm 0.00 in0.0 mm
02:45 PM 51.1°F10.6°C 41.3°F5.2°C 69% 11.0 mph WNW17.7 kmh WNW 20.0 mph32.2 kmh 30.51 in1033.2 mb 0.00 in0.0 mm 0.00 in0.0 mm 0.00 in0.0 mm
02:30 PM 51.6°F10.9°C 41.0°F5.0°C 67% 12.0 mph WNW19.3 kmh WNW 19.0 mph30.6 kmh 30.50 in1032.8 mb 0.00 in0.0 mm 0.00 in0.0 mm 0.00 in0.0 mm
02:15 PM 52.3°F11.3°C 41.7°F5.4°C 67% 10.0 mph WNW16.1 kmh WNW 16.0 mph25.7 kmh 30.51 in1033.2 mb 0.00 in0.0 mm 0.00 in0.0 mm 0.00 in0.0 mm
02:00 PM 52.2°F11.2°C 41.1°F5.1°C 66% 10.0 mph WNW16.1 kmh WNW 20.0 mph32.2 kmh 30.51 in1033.2 mb 0.00 in0.0 mm 0.00 in0.0 mm 0.00 in0.0 mm
01:45 PM 52.5°F11.4°C 41.9°F5.5°C 67% 10.0 mph W16.1 kmh W 18.0 mph29.0 kmh 30.51 in1033.2 mb 0.00 in0.0 mm 0.00 in0.0 mm 0.00 in0.0 mm
01:30 PM 51.8°F11.0°C 41.2°F5.1°C 67% 11.0 mph WNW17.7 kmh WNW 20.0 mph32.2 kmh 30.51 in1033.2 mb 0.00 in0.0 mm 0.00 in0.0 mm 0.00 in0.0 mm
01:15 PM 52.2°F11.2°C 41.9°F5.5°C 68% 10.0 mph W16.1 kmh W 17.0 mph27.4 kmh 30.51 in1033.2 mb 0.00 in0.0 mm 0.00 in0.0 mm 0.00 in0.0 mm
01:00 PM 52.2°F11.2°C 40.3°F4.6°C 64% 12.0 mph W19.3 kmh W 21.0 mph33.8 kmh 30.51 in1033.2 mb 0.00 in0.0 mm 0.00 in0.0 mm 0.00 in0.0 mm
12:45 PM 53.4°F11.9°C 42.3°F5.7°C 66% 10.0 mph WNW16.1 kmh WNW 22.0 mph35.4 kmh 30.51 in1033.2 mb 0.00 in0.0 mm 0.00 in0.0 mm 0.00 in0.0 mm
12:30 PM 52.5°F11.4°C 41.5°F5.3°C 66% 10.0 mph NW16.1 kmh NW 16.0 mph25.7 kmh 30.52 in1033.5 mb 0.00 in0.0 mm 0.00 in0.0 mm 0.00 in0.0 mm
12:15 PM 52.0°F11.1°C 42.1°F5.6°C 69% 9.0 mph WNW14.5 kmh WNW 16.0 mph25.7 kmh 30.51 in1033.2 mb 0.00 in0.0 mm 0.00 in0.0 mm 0.00 in0.0 mm
12:00 PM 50.7°F10.4°C 41.7°F5.4°C 71% 9.0 mph WNW14.5 kmh WNW 16.0 mph25.7 kmh 30.52 in1033.5 mb 0.00 in0.0 mm 0.00 in0.0 mm 0.00 in0.0 mm
11:45 AM 50.7°F10.4°C 40.9°F4.9°C 69% 11.0 mph WNW17.7 kmh WNW 19.0 mph30.6 kmh 30.52 in1033.5 mb 0.00 in0.0 mm 0.00 in0.0 mm 0.00 in0.0 mm
11:30 AM 50.5°F10.3°C 41.5°F5.3°C 71% 10.0 mph WNW16.1 kmh WNW 19.0 mph30.6 kmh 30.52 in1033.5 mb 0.00 in0.0 mm 0.00 in0.0 mm 0.00 in0.0 mm
11:15 AM 50.9°F10.5°C 41.8°F5.4°C 71% 10.0 mph WNW16.1 kmh WNW 18.0 mph29.0 kmh 30.52 in1033.5 mb 0.00 in0.0 mm 0.00 in0.0 mm 0.00 in0.0 mm
11:00 AM 50.7°F10.4°C 42.4°F5.8°C 73% 9.0 mph W14.5 kmh W 16.0 mph25.7 kmh 30.52 in1033.5 mb 0.00 in0.0 mm 0.00 in0.0 mm 0.00 in0.0 mm
10:45 AM 50.9°F10.5°C 44.3°F6.8°C 78% 4.0 mph W6.4 kmh W 10.0 mph16.1 kmh 30.52 in1033.5 mb 0.00 in0.0 mm 0.00 in0.0 mm 0.00 in0.0 mm
10:30 AM 50.7°F10.4°C 44.4°F6.9°C 79% 4.0 mph WSW6.4 kmh WSW 11.0 mph17.7 kmh 30.53 in1033.9 mb 0.00 in0.0 mm 0.00 in0.0 mm 0.00 in0.0 mm
10:15 AM 49.8°F9.9°C 43.9°F6.6°C 80% 3.0 mph SW4.8 kmh SW 9.0 mph14.5 kmh 30.52 in1033.5 mb 0.00 in0.0 mm 0.00 in0.0 mm 0.00 in0.0 mm
10:00 AM 48.6°F9.2°C 43.6°F6.4°C 83% 4.0 mph WSW6.4 kmh WSW 12.0 mph19.3 kmh 30.53 in1033.9 mb 0.00 in0.0 mm 0.00 in0.0 mm 0.00 in0.0 mm
09:45 AM 46.9°F8.3°C 42.7°F5.9°C 85% 3.0 mph WSW4.8 kmh WSW 6.0 mph9.7 kmh 30.53 in1033.9 mb 0.00 in0.0 mm 0.00 in0.0 mm 0.00 in0.0 mm
09:30 AM 45.7°F7.6°C 41.1°F5.1°C 84% 4.0 mph SSW6.4 kmh SSW 8.0 mph12.9 kmh 30.53 in1033.9 mb 0.00 in0.0 mm 0.00 in0.0 mm 0.00 in0.0 mm
09:15 AM 45.1°F7.3°C 40.9°F4.9°C 85% 5.0 mph S8.0 kmh S 9.0 mph14.5 kmh 30.54 in1034.2 mb 0.00 in0.0 mm 0.00 in0.0 mm 0.00 in0.0 mm
09:00 AM 44.8°F7.1°C 40.8°F4.9°C 86% 5.0 mph S8.0 kmh S 9.0 mph14.5 kmh 30.54 in1034.2 mb 0.00 in0.0 mm 0.00 in0.0 mm 0.00 in0.0 mm
08:45 AM 44.6°F7.0°C 41.0°F5.0°C 87% 3.0 mph SW4.8 kmh SW 6.0 mph9.7 kmh 30.54 in1034.2 mb 0.00 in0.0 mm 0.00 in0.0 mm 0.00 in0.0 mm
08:30 AM 44.4°F6.9°C 41.1°F5.1°C 88% 3.0 mph SSW4.8 kmh SSW 7.0 mph11.3 kmh 30.54 in1034.2 mb 0.00 in0.0 mm 0.00 in0.0 mm 0.00 in0.0 mm
08:15 AM 44.2°F6.8°C 41.5°F5.3°C 90% 3.0 mph S4.8 kmh S 8.0 mph12.9 kmh 30.54 in1034.2 mb 0.00 in0.0 mm 0.00 in0.0 mm 0.00 in0.0 mm
08:00 AM 43.5°F6.4°C 41.4°F5.2°C 92% 3.0 mph SSW4.8 kmh SSW 6.0 mph9.7 kmh 30.54 in1034.2 mb 0.00 in0.0 mm 0.00 in0.0 mm 0.00 in0.0 mm
07:45 AM 43.0°F6.1°C 41.1°F5.1°C 93% 3.0 mph S4.8 kmh S 6.0 mph9.7 kmh 30.54 in1034.2 mb 0.00 in0.0 mm 0.00 in0.0 mm 0.00 in0.0 mm
07:30 AM 42.4°F5.8°C 40.6°F4.8°C 93% 3.0 mph S4.8 kmh S 6.0 mph9.7 kmh 30.54 in1034.2 mb 0.00 in0.0 mm 0.00 in0.0 mm 0.00 in0.0 mm
07:15 AM 41.9°F5.5°C 40.0°F4.4°C 93% 2.0 mph S3.2 kmh S 5.0 mph8.0 kmh 30.54 in1034.2 mb 0.00 in0.0 mm 0.00 in0.0 mm 0.00 in0.0 mm
07:00 AM 41.7°F5.4°C 39.8°F4.3°C 93% 2.0 mph S3.2 kmh S 5.0 mph8.0 kmh 30.54 in1034.2 mb 0.00 in0.0 mm 0.00 in0.0 mm 0.00 in0.0 mm
06:45 AM 41.7°F5.4°C 39.8°F4.3°C 93% 2.0 mph S3.2 kmh S 5.0 mph8.0 kmh 30.55 in1034.5 mb 0.00 in0.0 mm 0.00 in0.0 mm 0.00 in0.0 mm
06:30 AM 41.5°F5.3°C 39.7°F4.3°C 93% 2.0 mph S3.2 kmh S 4.0 mph6.4 kmh 30.54 in1034.2 mb 0.00 in0.0 mm 0.00 in0.0 mm 0.00 in0.0 mm
06:15 AM 41.5°F5.3°C 39.7°F4.3°C 93% Calm Calm 2.0 mph3.2 kmh 30.54 in1034.2 mb 0.00 in0.0 mm 0.00 in0.0 mm 0.00 in0.0 mm
06:00 AM 41.5°F5.3°C 39.7°F4.3°C 93% 1.0 mph S1.6 kmh S 3.0 mph4.8 kmh 30.55 in1034.5 mb 0.00 in0.0 mm 0.00 in0.0 mm 0.00 in0.0 mm
05:45 AM 41.5°F5.3°C 39.7°F4.3°C 93% Calm Calm -- 30.55 in1034.5 mb 0.00 in0.0 mm 0.00 in0.0 mm 0.00 in0.0 mm
05:30 AM 41.5°F5.3°C 39.7°F4.3°C 93% Calm Calm -- 30.55 in1034.5 mb 0.00 in0.0 mm 0.00 in0.0 mm 0.00 in0.0 mm
05:15 AM 41.4°F5.2°C 39.5°F4.2°C 93% Calm Calm -- 30.55 in1034.5 mb 0.00 in0.0 mm 0.00 in0.0 mm 0.00 in0.0 mm
05:00 AM 41.4°F5.2°C 39.5°F4.2°C 93% 1.0 mph S1.6 kmh S 3.0 mph4.8 kmh 30.55 in1034.5 mb 0.00 in0.0 mm 0.00 in0.0 mm 0.00 in0.0 mm
04:45 AM 41.2°F5.1°C 39.3°F4.1°C 93% Calm Calm -- 30.55 in1034.5 mb 0.00 in0.0 mm 0.00 in0.0 mm 0.00 in0.0 mm
04:30 AM 41.2°F5.1°C 39.3°F4.1°C 93% Calm Calm -- 30.55 in1034.5 mb 0.00 in0.0 mm 0.00 in0.0 mm 0.00 in0.0 mm
04:15 AM 40.8°F4.9°C 39.0°F3.9°C 93% 1.0 mph S1.6 kmh S 3.0 mph4.8 kmh 30.55 in1034.5 mb 0.00 in0.0 mm 0.00 in0.0 mm 0.00 in0.0 mm
04:00 AM 40.6°F4.8°C 38.8°F3.8°C 93% Calm Calm 1.0 mph1.6 kmh 30.55 in1034.5 mb 0.00 in0.0 mm 0.00 in0.0 mm 0.00 in0.0 mm
03:45 AM 40.6°F4.8°C 38.8°F3.8°C 93% 1.0 mph SSW1.6 kmh SSW 3.0 mph4.8 kmh 30.55 in1034.5 mb 0.00 in0.0 mm 0.00 in0.0 mm 0.00 in0.0 mm
03:30 AM 40.5°F4.7°C 38.6°F3.7°C 93% 1.0 mph S1.6 kmh S 3.0 mph4.8 kmh 30.54 in1034.2 mb 0.00 in0.0 mm 0.00 in0.0 mm 0.00 in0.0 mm
03:15 AM 40.1°F4.5°C 38.0°F3.3°C 92% Calm Calm -- 30.54 in1034.2 mb 0.00 in0.0 mm 0.00 in0.0 mm 0.00 in0.0 mm
03:00 AM 39.7°F4.3°C 37.6°F3.1°C 92% Calm Calm -- 30.55 in1034.5 mb 0.00 in0.0 mm 0.00 in0.0 mm 0.00 in0.0 mm
02:45 AM 39.4°F4.1°C 37.2°F2.9°C 92% 2.0 mph S3.2 kmh S 4.0 mph6.4 kmh 30.55 in1034.5 mb 0.00 in0.0 mm 0.00 in0.0 mm 0.00 in0.0 mm
02:30 AM 39.2°F4.0°C 37.1°F2.8°C 92% 1.0 mph SSE1.6 kmh SSE 3.0 mph4.8 kmh 30.55 in1034.5 mb 0.00 in0.0 mm 0.00 in0.0 mm 0.00 in0.0 mm
02:15 AM 39.0°F3.9°C 36.9°F2.7°C 92% Calm Calm -- 30.56 in1034.9 mb 0.00 in0.0 mm 0.00 in0.0 mm 0.00 in0.0 mm
02:00 AM 38.7°F3.7°C 36.5°F2.5°C 92% Calm Calm -- 30.56 in1034.9 mb 0.00 in0.0 mm 0.00 in0.0 mm 0.00 in0.0 mm
01:45 AM 38.3°F3.5°C 36.2°F2.3°C 92% Calm Calm -- 30.57 in1035.2 mb 0.00 in0.0 mm 0.00 in0.0 mm 0.00 in0.0 mm
01:30 AM 37.8°F3.2°C 35.4°F1.9°C 91% Calm Calm -- 30.56 in1034.9 mb 0.00 in0.0 mm 0.00 in0.0 mm 0.00 in0.0 mm
01:15 AM 37.6°F3.1°C 35.2°F1.8°C 91% Calm Calm -- 30.56 in1034.9 mb 0.00 in0.0 mm 0.00 in0.0 mm 0.00 in0.0 mm
01:00 AM 37.2°F2.9°C 34.8°F1.6°C 91% Calm Calm -- 30.56 in1034.9 mb 0.00 in0.0 mm 0.00 in0.0 mm 0.00 in0.0 mm
12:45 AM 37.2°F2.9°C 34.6°F1.4°C 90% 2.0 mph SSE3.2 kmh SSE 4.0 mph6.4 kmh 30.57 in1035.2 mb 0.00 in0.0 mm 0.00 in0.0 mm 0.00 in0.0 mm
12:30 AM 37.0°F2.8°C 34.4°F1.3°C 90% Calm Calm -- 30.57 in1035.2 mb 0.00 in0.0 mm 0.00 in0.0 mm 0.00 in0.0 mm
12:15 AM 37.6°F3.1°C 34.6°F1.4°C 89% 1.0 mph SSE1.6 kmh SSE 3.0 mph4.8 kmh 30.57 in1035.2 mb 0.00 in0.0 mm 0.00 in0.0 mm 0.00 in0.0 mm
12:00 AM 37.9°F3.3°C 35.0°F1.7°C 89% 2.0 mph SSE3.2 kmh SSE 4.0 mph6.4 kmh 30.57 in1035.2 mb 0.00 in0.0 mm 0.00 in0.0 mm 0.00 in0.0 mm